sensor_id;sensor_type;location;lat;lon;timestamp;pressure;altitude;pressure_sealevel;temperature;humidity
34931;BME280;21134;49.646;8.560;2023-05-10T00:00:59;99775.94;;;13.96;100.00
34931;BME280;21134;49.646;8.560;2023-05-10T00:03:25;99778.69;;;13.90;100.00
34931;BME280;21134;49.646;8.560;2023-05-10T00:05:52;99778.00;;;13.84;100.00
34931;BME280;21134;49.646;8.560;2023-05-10T00:08:20;99772.03;;;13.83;100.00
34931;BME280;21134;49.646;8.560;2023-05-10T00:10:46;99781.31;;;13.89;100.00
34931;BME280;21134;49.646;8.560;2023-05-10T00:13:13;99782.16;;;13.88;100.00
34931;BME280;21134;49.646;8.560;2023-05-10T00:15:39;99780.50;;;13.87;100.00
34931;BME280;21134;49.646;8.560;2023-05-10T00:18:06;99777.91;;;13.87;100.00
34931;BME280;21134;49.646;8.560;2023-05-10T00:20:33;99784.84;;;13.85;100.00
34931;BME280;21134;49.646;8.560;2023-05-10T00:22:59;99778.06;;;13.81;100.00
34931;BME280;21134;49.646;8.560;2023-05-10T00:25:27;99782.38;;;13.80;100.00
34931;BME280;21134;49.646;8.560;2023-05-10T00:27:53;99785.84;;;13.79;100.00
34931;BME280;21134;49.646;8.560;2023-05-10T00:30:20;99782.34;;;13.82;100.00
34931;BME280;21134;49.646;8.560;2023-05-10T00:32:47;99784.94;;;13.82;100.00
34931;BME280;21134;49.646;8.560;2023-05-10T00:35:15;99783.19;;;13.82;100.00
34931;BME280;21134;49.646;8.560;2023-05-10T00:37:41;99788.38;;;13.81;100.00
34931;BME280;21134;49.646;8.560;2023-05-10T00:40:08;99784.13;;;13.80;100.00
34931;BME280;21134;49.646;8.560;2023-05-10T00:42:36;99783.31;;;13.78;100.00
34931;BME280;21134;49.646;8.560;2023-05-10T00:45:03;99787.59;;;13.77;100.00
34931;BME280;21134;49.646;8.560;2023-05-10T00:47:31;99785.09;;;13.74;100.00
34931;BME280;21134;49.646;8.560;2023-05-10T00:49:58;99789.41;;;13.73;100.00
34931;BME280;21134;49.646;8.560;2023-05-10T00:52:25;99780.56;;;13.84;100.00
34931;BME280;21134;49.646;8.560;2023-05-10T00:54:52;99778.13;;;13.79;100.00
34931;BME280;21134;49.646;8.560;2023-05-10T00:57:19;99779.97;;;13.74;100.00
34931;BME280;21134;49.646;8.560;2023-05-10T00:59:47;99779.19;;;13.70;100.00
34931;BME280;21134;49.646;8.560;2023-05-10T01:02:14;99777.47;;;13.71;100.00
34931;BME280;21134;49.646;8.560;2023-05-10T01:04:40;99780.03;;;13.72;100.00
34931;BME280;21134;49.646;8.560;2023-05-10T01:07:07;99782.63;;;13.71;100.00
34931;BME280;21134;49.646;8.560;2023-05-10T01:09:33;99784.34;;;13.70;100.00
34931;BME280;21134;49.646;8.560;2023-05-10T01:12:01;99775.75;;;13.71;100.00
34931;BME280;21134;49.646;8.560;2023-05-10T01:14:28;99786.03;;;13.71;100.00
34931;BME280;21134;49.646;8.560;2023-05-10T01:16:56;99786.09;;;13.68;100.00
34931;BME280;21134;49.646;8.560;2023-05-10T01:19:26;99784.41;;;13.67;100.00
34931;BME280;21134;49.646;8.560;2023-05-10T01:22:01;99787.00;;;13.67;100.00
34931;BME280;21134;49.646;8.560;2023-05-10T01:24:40;99796.44;;;13.67;100.00
34931;BME280;21134;49.646;8.560;2023-05-10T01:27:42;99798.25;;;13.63;100.00
34931;BME280;21134;49.646;8.560;2023-05-10T01:30:31;99801.66;;;13.64;100.00
34931;BME280;21134;49.646;8.560;2023-05-10T01:33:09;99796.59;;;13.61;100.00
34931;BME280;21134;49.646;8.560;2023-05-10T01:35:41;99794.06;;;13.59;100.00
34931;BME280;21134;49.646;8.560;2023-05-10T01:38:15;99790.59;;;13.60;100.00
34931;BME280;21134;49.646;8.560;2023-05-10T01:40:52;99805.94;;;13.63;100.00
34931;BME280;21134;49.646;8.560;2023-05-10T01:43:27;99799.91;;;13.64;100.00
34931;BME280;21134;49.646;8.560;2023-05-10T01:46:00;99801.66;;;13.62;100.00
34931;BME280;21134;49.646;8.560;2023-05-10T01:48:36;99805.03;;;13.66;100.00
34931;BME280;21134;49.646;8.560;2023-05-10T01:51:04;99811.13;;;13.62;100.00
34931;BME280;21134;49.646;8.560;2023-05-10T01:53:34;99813.66;;;13.63;100.00
34931;BME280;21134;49.646;8.560;2023-05-10T01:56:04;99817.09;;;13.62;100.00
34931;BME280;21134;49.646;8.560;2023-05-10T01:58:32;99817.91;;;13.64;100.00
34931;BME280;21134;49.646;8.560;2023-05-10T02:01:03;99817.06;;;13.64;100.00
34931;BME280;21134;49.646;8.560;2023-05-10T02:03:32;99821.31;;;13.66;100.00
34931;BME280;21134;49.646;8.560;2023-05-10T02:06:03;99816.19;;;13.65;100.00
34931;BME280;21134;49.646;8.560;2023-05-10T02:08:31;99820.53;;;13.63;100.00
34931;BME280;21134;49.646;8.560;2023-05-10T02:11:00;99823.94;;;13.63;100.00
34931;BME280;21134;49.646;8.560;2023-05-10T02:13:28;99826.53;;;13.62;100.00
34931;BME280;21134;49.646;8.560;2023-05-10T02:15:56;99827.44;;;13.61;100.00
34931;BME280;21134;49.646;8.560;2023-05-10T02:18:25;99823.19;;;13.60;100.00
34931;BME280;21134;49.646;8.560;2023-05-10T02:20:54;99817.22;;;13.58;100.00
34931;BME280;21134;49.646;8.560;2023-05-10T02:23:23;99818.97;;;13.56;100.00
34931;BME280;21134;49.646;8.560;2023-05-10T02:25:51;99823.28;;;13.55;100.00
34931;BME280;21134;49.646;8.560;2023-05-10T02:28:19;99829.25;;;13.56;100.00
34931;BME280;21134;49.646;8.560;2023-05-10T02:30:47;99835.22;;;13.58;100.00
34931;BME280;21134;49.646;8.560;2023-05-10T02:33:14;99826.66;;;13.57;100.00
34931;BME280;21134;49.646;8.560;2023-05-10T02:35:41;99828.41;;;13.55;100.00
34931;BME280;21134;49.646;8.560;2023-05-10T02:38:09;99825.06;;;13.53;100.00
34931;BME280;21134;49.646;8.560;2023-05-10T02:40:38;99822.41;;;13.56;100.00
34931;BME280;21134;49.646;8.560;2023-05-10T02:43:09;99826.75;;;13.53;100.00
34931;BME280;21134;49.646;8.560;2023-05-10T02:45:38;99825.81;;;13.57;100.00
34931;BME280;21134;49.646;8.560;2023-05-10T02:48:06;99826.59;;;13.59;100.00
34931;BME280;21134;49.646;8.560;2023-05-10T02:50:33;99831.75;;;13.59;100.00
34931;BME280;21134;49.646;8.560;2023-05-10T02:53:05;99829.19;;;13.59;100.00
34931;BME280;21134;49.646;8.560;2023-05-10T02:55:38;99837.66;;;13.62;100.00
34931;BME280;21134;49.646;8.560;2023-05-10T02:58:05;99826.53;;;13.63;100.00
34931;BME280;21134;49.646;8.560;2023-05-10T03:00:31;99830.00;;;13.61;100.00
34931;BME280;21134;49.646;8.560;2023-05-10T03:02:58;99835.97;;;13.63;100.00
34931;BME280;21134;49.646;8.560;2023-05-10T03:05:25;99840.28;;;13.61;100.00
34931;BME280;21134;49.646;8.560;2023-05-10T03:07:52;99834.25;;;13.62;100.00
34931;BME280;21134;49.646;8.560;2023-05-10T03:10:21;99847.19;;;13.59;100.00
34931;BME280;21134;49.646;8.560;2023-05-10T03:13:06;99837.78;;;13.58;100.00
34931;BME280;21134;49.646;8.560;2023-05-10T03:15:42;99845.63;;;13.53;100.00
34931;BME280;21134;49.646;8.560;2023-05-10T03:18:17;99847.38;;;13.51;100.00
34931;BME280;21134;49.646;8.560;2023-05-10T03:20:47;99844.78;;;13.51;100.00
34931;BME280;21134;49.646;8.560;2023-05-10T03:23:21;99848.22;;;13.52;100.00
34931;BME280;21134;49.646;8.560;2023-05-10T03:25:50;99846.53;;;13.51;100.00
34931;BME280;21134;49.646;8.560;2023-05-10T03:28:19;99850.06;;;13.46;100.00
34931;BME280;21134;49.646;8.560;2023-05-10T03:30:47;99850.91;;;13.47;100.00
34931;BME280;21134;49.646;8.560;2023-05-10T03:33:13;99853.50;;;13.45;100.00
34931;BME280;21134;49.646;8.560;2023-05-10T03:35:40;99856.97;;;13.43;100.00
34931;BME280;21134;49.646;8.560;2023-05-10T03:38:06;99857.78;;;13.46;100.00
34931;BME280;21134;49.646;8.560;2023-05-10T03:40:33;99856.00;;;13.48;100.00
34931;BME280;21134;49.646;8.560;2023-05-10T03:42:59;99854.25;;;13.51;100.00
34931;BME280;21134;49.646;8.560;2023-05-10T03:45:27;99850.84;;;13.48;100.00
34931;BME280;21134;49.646;8.560;2023-05-10T03:47:54;99854.31;;;13.47;100.00
34931;BME280;21134;49.646;8.560;2023-05-10T03:50:21;99857.78;;;13.46;100.00
34931;BME280;21134;49.646;8.560;2023-05-10T03:52:47;99850.06;;;13.46;100.00
34931;BME280;21134;49.646;8.560;2023-05-10T03:55:14;99849.31;;;13.41;100.00
34931;BME280;21134;49.646;8.560;2023-05-10T03:57:40;99844.16;;;13.41;100.00
34931;BME280;21134;49.646;8.560;2023-05-10T04:00:08;99845.84;;;13.42;100.00
34931;BME280;21134;49.646;8.560;2023-05-10T04:02:36;99846.81;;;13.38;100.00
34931;BME280;21134;49.646;8.560;2023-05-10T04:05:02;99838.13;;;13.42;100.00
34931;BME280;21134;49.646;8.560;2023-05-10T04:07:29;99846.75;;;13.40;100.00
34931;BME280;21134;49.646;8.560;2023-05-10T04:09:55;99848.47;;;13.39;100.00
34931;BME280;21134;49.646;8.560;2023-05-10T04:12:22;99847.69;;;13.37;100.00
34931;BME280;21134;49.646;8.560;2023-05-10T04:14:48;99858.06;;;13.33;100.00
34931;BME280;21134;49.646;8.560;2023-05-10T04:17:16;99852.25;;;13.24;100.00
34931;BME280;21134;49.646;8.560;2023-05-10T04:19:44;99864.31;;;13.19;100.00
34931;BME280;21134;49.646;8.560;2023-05-10T04:22:10;99873.81;;;13.16;100.00
34931;BME280;21134;49.646;8.560;2023-05-10T04:24:37;99873.06;;;13.12;100.00
34931;BME280;21134;49.646;8.560;2023-05-10T04:27:03;99879.91;;;13.12;100.00
34931;BME280;21134;49.646;8.560;2023-05-10T04:29:29;99875.69;;;13.09;100.00
34931;BME280;21134;49.646;8.560;2023-05-10T04:31:56;99879.03;;;13.11;100.00
34931;BME280;21134;49.646;8.560;2023-05-10T04:34:22;99882.50;;;13.10;100.00
34931;BME280;21134;49.646;8.560;2023-05-10T04:36:50;99883.31;;;13.12;100.00
34931;BME280;21134;49.646;8.560;2023-05-10T04:39:17;99885.81;;;13.15;100.00
34931;BME280;21134;49.646;8.560;2023-05-10T04:41:43;99882.34;;;13.18;100.00
34931;BME280;21134;49.646;8.560;2023-05-10T04:44:10;99884.84;;;13.21;100.00
34931;BME280;21134;49.646;8.560;2023-05-10T04:46:36;99891.69;;;13.22;100.00
34931;BME280;21134;49.646;8.560;2023-05-10T04:49:03;99889.16;;;13.19;100.00
34931;BME280;21134;49.646;8.560;2023-05-10T04:51:29;99896.88;;;13.19;100.00
34931;BME280;21134;49.646;8.560;2023-05-10T04:53:57;99901.03;;;13.26;100.00
34931;BME280;21134;49.646;8.560;2023-05-10T04:56:24;99898.44;;;13.28;100.00
34931;BME280;21134;49.646;8.560;2023-05-10T04:58:50;99906.88;;;13.33;100.00
34931;BME280;21134;49.646;8.560;2023-05-10T05:01:17;99908.47;;;13.38;100.00
34931;BME280;21134;49.646;8.560;2023-05-10T05:03:43;99916.31;;;13.34;100.00
34931;BME280;21134;49.646;8.560;2023-05-10T05:06:10;99916.31;;;13.34;100.00
34931;BME280;21134;49.646;8.560;2023-05-10T05:08:36;99923.06;;;13.38;100.00
34931;BME280;21134;49.646;8.560;2023-05-10T05:11:04;99918.75;;;13.38;100.00
34931;BME280;21134;49.646;8.560;2023-05-10T05:13:30;99920.41;;;13.41;100.00
34931;BME280;21134;49.646;8.560;2023-05-10T05:15:59;99920.28;;;13.47;100.00
34931;BME280;21134;49.646;8.560;2023-05-10T05:18:26;99921.16;;;13.46;100.00
34931;BME280;21134;49.646;8.560;2023-05-10T05:20:52;99926.13;;;13.54;100.00
34931;BME280;21134;49.646;8.560;2023-05-10T05:23:19;99930.31;;;13.59;100.00
34931;BME280;21134;49.646;8.560;2023-05-10T05:25:50;99924.22;;;13.62;100.00
34931;BME280;21134;49.646;8.560;2023-05-10T05:28:18;99930.00;;;13.71;100.00
34931;BME280;21134;49.646;8.560;2023-05-10T05:30:45;99918.81;;;13.74;100.00
34931;BME280;21134;49.646;8.560;2023-05-10T05:33:13;99932.34;;;13.82;100.00
34931;BME280;21134;49.646;8.560;2023-05-10T05:35:40;99929.56;;;13.91;100.00
34931;BME280;21134;49.646;8.560;2023-05-10T05:38:08;99926.88;;;13.96;100.00
34931;BME280;21134;49.646;8.560;2023-05-10T05:40:34;99931.88;;;14.01;100.00
34931;BME280;21134;49.646;8.560;2023-05-10T05:43:01;99938.75;;;14.00;100.00
34931;BME280;21134;49.646;8.560;2023-05-10T05:45:28;99932.84;;;13.96;100.00
34931;BME280;21134;49.646;8.560;2023-05-10T05:47:55;99935.34;;;14.00;100.00
34931;BME280;21134;49.646;8.560;2023-05-10T05:50:22;99936.09;;;14.05;100.00
34931;BME280;21134;49.646;8.560;2023-05-10T05:52:48;99941.13;;;14.09;100.00
34931;BME280;21134;49.646;8.560;2023-05-10T05:55:15;99934.25;;;14.10;100.00
34931;BME280;21134;49.646;8.560;2023-05-10T05:57:41;99947.00;;;14.14;100.00
34931;BME280;21134;49.646;8.560;2023-05-10T06:00:08;99949.38;;;14.22;100.00
34931;BME280;21134;49.646;8.560;2023-05-10T06:02:37;99944.06;;;14.30;100.00
34931;BME280;21134;49.646;8.560;2023-05-10T06:05:04;99952.50;;;14.35;100.00
34931;BME280;21134;49.646;8.560;2023-05-10T06:07:30;99947.13;;;14.44;100.00
34931;BME280;21134;49.646;8.560;2023-05-10T06:09:57;99949.59;;;14.47;100.00
34931;BME280;21134;49.646;8.560;2023-05-10T06:12:23;99958.03;;;14.55;100.00
34931;BME280;21134;49.646;8.560;2023-05-10T06:14:50;99968.28;;;14.57;100.00
34931;BME280;21134;49.646;8.560;2023-05-10T06:17:16;99964.78;;;14.59;100.00
34931;BME280;21134;49.646;8.560;2023-05-10T06:19:44;99962.81;;;14.68;100.00
34931;BME280;21134;49.646;8.560;2023-05-10T06:22:11;99965.22;;;14.75;100.00
34931;BME280;21134;49.646;8.560;2023-05-10T06:24:37;99967.63;;;14.81;100.00
34931;BME280;21134;49.646;8.560;2023-05-10T06:27:03;99961.66;;;14.81;100.00
34931;BME280;21134;49.646;8.560;2023-05-10T06:29:30;99971.13;;;14.79;100.00
34931;BME280;21134;49.646;8.560;2023-05-10T06:31:56;99966.78;;;14.81;100.00
34931;BME280;21134;49.646;8.560;2023-05-10T06:34:23;99976.03;;;14.88;100.00
34931;BME280;21134;49.646;8.560;2023-05-10T06:36:51;99975.91;;;14.93;100.00
34931;BME280;21134;49.646;8.560;2023-05-10T06:39:18;99974.28;;;14.90;100.00
34931;BME280;21134;49.646;8.560;2023-05-10T06:41:44;99975.53;;;15.06;100.00
34931;BME280;21134;49.646;8.560;2023-05-10T06:44:11;99968.31;;;15.19;100.00
34931;BME280;21134;49.646;8.560;2023-05-10T06:46:38;99969.75;;;15.28;100.00
34931;BME280;21134;49.646;8.560;2023-05-10T06:49:04;99974.72;;;15.35;100.00
34931;BME280;21134;49.646;8.560;2023-05-10T06:51:31;99970.88;;;15.49;100.00
34931;BME280;21134;49.646;8.560;2023-05-10T06:53:59;99975.88;;;15.55;100.00
34931;BME280;21134;49.646;8.560;2023-05-10T06:56:26;99977.50;;;15.57;100.00
34931;BME280;21134;49.646;8.560;2023-05-10T06:58:52;99974.94;;;15.57;100.00
34931;BME280;21134;49.646;8.560;2023-05-10T07:01:19;99981.03;;;15.55;100.00
34931;BME280;21134;49.646;8.560;2023-05-10T07:03:46;99976.78;;;15.52;100.00
34931;BME280;21134;49.646;8.560;2023-05-10T07:06:12;99983.81;;;15.47;100.00
34931;BME280;21134;49.646;8.560;2023-05-10T07:08:39;99981.22;;;15.47;100.00
34931;BME280;21134;49.646;8.560;2023-05-10T07:11:06;99988.28;;;15.42;100.00
34931;BME280;21134;49.646;8.560;2023-05-10T07:13:33;99990.00;;;15.42;100.00
34931;BME280;21134;49.646;8.560;2023-05-10T07:16:01;99990.00;;;15.42;100.00
34931;BME280;21134;49.646;8.560;2023-05-10T07:18:28;99988.56;;;15.31;100.00
34931;BME280;21134;49.646;8.560;2023-05-10T07:20:54;99992.09;;;15.29;100.00
34931;BME280;21134;49.646;8.560;2023-05-10T07:23:21;99992.03;;;15.30;100.00
34931;BME280;21134;49.646;8.560;2023-05-10T07:25:48;99990.25;;;15.32;100.00
34931;BME280;21134;49.646;8.560;2023-05-10T07:28:16;99990.84;;;15.42;100.00
34931;BME280;21134;49.646;8.560;2023-05-10T07:30:43;99985.06;;;15.64;100.00
34931;BME280;21134;49.646;8.560;2023-05-10T07:33:10;99987.19;;;15.79;100.00
34931;BME280;21134;49.646;8.560;2023-05-10T07:35:37;99990.22;;;15.92;99.88
34931;BME280;21134;49.646;8.560;2023-05-10T07:38:04;99989.50;;;15.88;99.46
34931;BME280;21134;49.646;8.560;2023-05-10T07:40:31;99993.47;;;15.98;98.87
34931;BME280;21134;49.646;8.560;2023-05-10T07:42:58;99997.19;;;16.18;97.70
34931;BME280;21134;49.646;8.560;2023-05-10T07:45:26;100005.56;;;16.24;96.49
34931;BME280;21134;49.646;8.560;2023-05-10T07:47:53;99995.72;;;16.36;96.80
34931;BME280;21134;49.646;8.560;2023-05-10T07:50:19;99997.31;;;16.40;96.57
34931;BME280;21134;49.646;8.560;2023-05-10T07:52:46;100004.94;;;16.43;96.05
34931;BME280;21134;49.646;8.560;2023-05-10T07:55:12;100002.03;;;16.54;96.30
34931;BME280;21134;49.646;8.560;2023-05-10T07:57:39;100002.47;;;16.66;94.52
34931;BME280;21134;49.646;8.560;2023-05-10T08:00:06;100005.63;;;16.74;92.61
34931;BME280;21134;49.646;8.560;2023-05-10T08:02:35;99998.13;;;16.67;93.18
34931;BME280;21134;49.646;8.560;2023-05-10T08:05:01;100002.13;;;16.77;90.29
34931;BME280;21134;49.646;8.560;2023-05-10T08:07:28;99996.16;;;16.75;90.90
34931;BME280;21134;49.646;8.560;2023-05-10T08:09:54;99997.25;;;16.93;89.34
34931;BME280;21134;49.646;8.560;2023-05-10T08:12:21;100002.72;;;17.09;87.71
34931;BME280;21134;49.646;8.560;2023-05-10T08:14:47;100005.63;;;17.25;86.12
34931;BME280;21134;49.646;8.560;2023-05-10T08:17:14;100000.41;;;17.26;83.51
34931;BME280;21134;49.646;8.560;2023-05-10T08:19:42;100010.22;;;17.40;83.34
34931;BME280;21134;49.646;8.560;2023-05-10T08:22:08;100007.13;;;17.54;82.99
34931;BME280;21134;49.646;8.560;2023-05-10T08:24:35;100008.06;;;17.75;82.00
34931;BME280;21134;49.646;8.560;2023-05-10T08:27:05;100010.50;;;18.01;80.50
34931;BME280;21134;49.646;8.560;2023-05-10T08:29:31;100008.72;;;18.03;78.85
34931;BME280;21134;49.646;8.560;2023-05-10T08:31:58;100015.06;;;18.39;76.96
34931;BME280;21134;49.646;8.560;2023-05-10T08:34:26;100008.34;;;18.55;77.79
34931;BME280;21134;49.646;8.560;2023-05-10T08:36:53;100005.72;;;18.77;75.50
34931;BME280;21134;49.646;8.560;2023-05-10T08:39:20;100006.88;;;18.90;74.72
34931;BME280;21134;49.646;8.560;2023-05-10T08:41:47;100006.06;;;19.09;72.46
34931;BME280;21134;49.646;8.560;2023-05-10T08:44:15;100009.28;;;19.14;72.39
34931;BME280;21134;49.646;8.560;2023-05-10T08:46:46;100011.63;;;19.39;72.66
34931;BME280;21134;49.646;8.560;2023-05-10T08:49:17;100014.22;;;19.39;68.10
34931;BME280;21134;49.646;8.560;2023-05-10T08:51:49;100013.59;;;19.52;68.83
34931;BME280;21134;49.646;8.560;2023-05-10T08:54:18;100026.84;;;19.67;69.38
34931;BME280;21134;49.646;8.560;2023-05-10T08:56:45;100021.53;;;19.31;68.00
34931;BME280;21134;49.646;8.560;2023-05-10T08:59:11;100025.72;;;19.33;67.22
34931;BME280;21134;49.646;8.560;2023-05-10T09:01:40;100026.06;;;19.25;67.06
34931;BME280;21134;49.646;8.560;2023-05-10T09:04:09;100020.38;;;19.17;67.21
34931;BME280;21134;49.646;8.560;2023-05-10T09:06:36;100029.94;;;18.76;66.91
34931;BME280;21134;49.646;8.560;2023-05-10T09:09:02;100031.88;;;18.71;68.56
34931;BME280;21134;49.646;8.560;2023-05-10T09:11:31;100028.25;;;18.75;69.42
34931;BME280;21134;49.646;8.560;2023-05-10T09:13:57;100036.72;;;18.58;70.72
34931;BME280;21134;49.646;8.560;2023-05-10T09:16:24;100032.78;;;18.70;71.12
34931;BME280;21134;49.646;8.560;2023-05-10T09:18:50;100040.41;;;19.14;70.37
34931;BME280;21134;49.646;8.560;2023-05-10T09:21:19;100030.00;;;19.15;67.97
34931;BME280;21134;49.646;8.560;2023-05-10T09:23:46;100034.00;;;19.22;66.71
34931;BME280;21134;49.646;8.560;2023-05-10T09:26:15;100030.75;;;19.17;67.04
34931;BME280;21134;49.646;8.560;2023-05-10T09:28:54;100035.03;;;19.18;66.61
34931;BME280;21134;49.646;8.560;2023-05-10T09:31:21;100048.50;;;19.26;65.92
34931;BME280;21134;49.646;8.560;2023-05-10T09:33:49;100046.41;;;18.95;64.51
34931;BME280;21134;49.646;8.560;2023-05-10T09:36:16;100046.56;;;18.92;67.12
34931;BME280;21134;49.646;8.560;2023-05-10T09:38:47;100053.78;;;18.84;67.62
34931;BME280;21134;49.646;8.560;2023-05-10T09:41:18;100039.44;;;18.55;66.74
34931;BME280;21134;49.646;8.560;2023-05-10T09:43:45;100038.72;;;18.51;67.37
34931;BME280;21134;49.646;8.560;2023-05-10T09:46:13;100052.69;;;18.47;68.46
34931;BME280;21134;49.646;8.560;2023-05-10T09:48:44;100050.75;;;18.52;67.21
34931;BME280;21134;49.646;8.560;2023-05-10T09:51:18;100049.47;;;18.63;67.62
34931;BME280;21134;49.646;8.560;2023-05-10T09:53:45;100053.78;;;18.84;67.03
34931;BME280;21134;49.646;8.560;2023-05-10T09:56:11;100056.84;;;18.94;65.96
34931;BME280;21134;49.646;8.560;2023-05-10T09:58:38;100054.00;;;18.79;67.81
34931;BME280;21134;49.646;8.560;2023-05-10T10:01:10;100057.75;;;18.93;67.52
34931;BME280;21134;49.646;8.560;2023-05-10T10:03:42;100057.41;;;19.00;67.03
34931;BME280;21134;49.646;8.560;2023-05-10T10:06:08;100053.81;;;19.44;64.89
34931;BME280;21134;49.646;8.560;2023-05-10T10:08:35;100060.03;;;19.59;64.65
34931;BME280;21134;49.646;8.560;2023-05-10T10:11:02;100059.56;;;19.50;64.50
34931;BME280;21134;49.646;8.560;2023-05-10T10:13:29;100057.81;;;19.51;63.56
34931;BME280;21134;49.646;8.560;2023-05-10T10:15:57;100064.59;;;19.14;64.21
34931;BME280;21134;49.646;8.560;2023-05-10T10:18:24;100061.44;;;19.08;63.56
34931;BME280;21134;49.646;8.560;2023-05-10T10:20:54;100072.72;;;19.07;66.22
34931;BME280;21134;49.646;8.560;2023-05-10T10:23:21;100066.81;;;19.03;62.99
34931;BME280;21134;49.646;8.560;2023-05-10T10:25:48;100064.22;;;19.42;63.76
34931;BME280;21134;49.646;8.560;2023-05-10T10:28:24;100064.44;;;19.38;62.53
34931;BME280;21134;49.646;8.560;2023-05-10T10:30:54;100065.50;;;19.34;61.90
34931;BME280;21134;49.646;8.560;2023-05-10T10:33:33;100067.63;;;19.63;62.63
34931;BME280;21134;49.646;8.560;2023-05-10T10:36:04;100085.34;;;19.35;62.39
34931;BME280;21134;49.646;8.560;2023-05-10T10:38:54;100084.75;;;19.08;62.24
34931;BME280;21134;49.646;8.560;2023-05-10T10:41:29;100082.25;;;19.06;61.93
34931;BME280;21134;49.646;8.560;2023-05-10T10:44:34;100088.41;;;19.03;60.02
34931;BME280;21134;49.646;8.560;2023-05-10T10:47:06;100085.28;;;19.16;58.96
34931;BME280;21134;49.646;8.560;2023-05-10T10:49:42;100070.69;;;19.34;60.08
34931;BME280;21134;49.646;8.560;2023-05-10T10:52:21;100067.88;;;19.78;57.99
34931;BME280;21134;49.646;8.560;2023-05-10T10:54:51;100075.31;;;20.04;59.25
34931;BME280;21134;49.646;8.560;2023-05-10T10:57:19;100073.34;;;20.46;56.66
34931;BME280;21134;49.646;8.560;2023-05-10T10:59:47;100062.50;;;20.55;56.48
34931;BME280;21134;49.646;8.560;2023-05-10T11:02:34;100070.78;;;20.27;57.43
34931;BME280;21134;49.646;8.560;2023-05-10T11:08:15;100065.75;;;20.05;55.51
34931;BME280;21134;49.646;8.560;2023-05-10T11:11:04;100073.16;;;19.76;58.31
34931;BME280;21134;49.646;8.560;2023-05-10T11:13:33;100078.66;;;19.87;58.47
34931;BME280;21134;49.646;8.560;2023-05-10T11:16:10;100077.34;;;19.97;56.89
34931;BME280;21134;49.646;8.560;2023-05-10T11:18:37;100080.84;;;19.96;55.65
34931;BME280;21134;49.646;8.560;2023-05-10T11:21:04;100078.88;;;20.02;56.25
34931;BME280;21134;49.646;8.560;2023-05-10T11:23:48;100075.97;;;20.27;56.63
34931;BME280;21134;49.646;8.560;2023-05-10T11:26:15;100079.81;;;20.37;56.21
34931;BME280;21134;49.646;8.560;2023-05-10T11:28:41;100075.72;;;20.14;57.32
34931;BME280;21134;49.646;8.560;2023-05-10T11:31:08;100077.31;;;20.16;57.15
34931;BME280;21134;49.646;8.560;2023-05-10T11:33:42;100084.06;;;20.20;56.20
34931;BME280;21134;49.646;8.560;2023-05-10T11:36:11;100077.09;;;20.21;54.65
34931;BME280;21134;49.646;8.560;2023-05-10T11:38:38;100094.09;;;20.09;53.59
34931;BME280;21134;49.646;8.560;2023-05-10T11:41:05;100086.81;;;20.17;55.12
34931;BME280;21134;49.646;8.560;2023-05-10T11:43:34;100086.81;;;20.54;55.84
34931;BME280;21134;49.646;8.560;2023-05-10T11:46:02;100082.88;;;20.81;54.69
34931;BME280;21134;49.646;8.560;2023-05-10T11:48:29;100087.78;;;21.21;53.90
34931;BME280;21134;49.646;8.560;2023-05-10T11:50:55;100085.88;;;21.42;52.19
34931;BME280;21134;49.646;8.560;2023-05-10T11:53:23;100089.78;;;21.82;54.81
34931;BME280;21134;49.646;8.560;2023-05-10T11:55:51;100078.13;;;21.73;50.53
34931;BME280;21134;49.646;8.560;2023-05-10T11:58:18;100083.69;;;22.31;48.96
34931;BME280;21134;49.646;8.560;2023-05-10T12:00:47;100091.91;;;22.39;49.33
34931;BME280;21134;49.646;8.560;2023-05-10T12:03:13;100089.97;;;22.42;47.66
34931;BME280;21134;49.646;8.560;2023-05-10T12:08:11;100096.78;;;22.13;47.88
34931;BME280;21134;49.646;8.560;2023-05-10T12:10:38;100096.19;;;21.76;50.33
34931;BME280;21134;49.646;8.560;2023-05-10T12:13:10;100092.81;;;21.74;50.37
34931;BME280;21134;49.646;8.560;2023-05-10T12:15:37;100087.19;;;22.14;49.49
34931;BME280;21134;49.646;8.560;2023-05-10T12:18:03;100087.19;;;22.14;49.13
34931;BME280;21134;49.646;8.560;2023-05-10T12:20:30;100089.56;;;21.87;49.36
34931;BME280;21134;49.646;8.560;2023-05-10T12:22:58;100091.44;;;22.16;49.82
34931;BME280;21134;49.646;8.560;2023-05-10T12:25:30;100096.63;;;22.32;49.46
34931;BME280;21134;49.646;8.560;2023-05-10T12:27:58;100092.75;;;22.08;51.82
34931;BME280;21134;49.646;8.560;2023-05-10T12:30:28;100088.03;;;22.76;49.24
34931;BME280;21134;49.646;8.560;2023-05-10T12:33:00;100096.94;;;22.42;48.91
34931;BME280;21134;49.646;8.560;2023-05-10T12:35:30;100092.41;;;22.29;50.27
34931;BME280;21134;49.646;8.560;2023-05-10T12:37:56;100108.47;;;22.06;49.29
34931;BME280;21134;49.646;8.560;2023-05-10T12:40:23;100104.34;;;21.70;50.26
34931;BME280;21134;49.646;8.560;2023-05-10T12:42:49;100103.69;;;21.49;49.85
34931;BME280;21134;49.646;8.560;2023-05-10T12:45:17;100099.91;;;21.39;49.82
34931;BME280;21134;49.646;8.560;2023-05-10T12:47:45;100107.53;;;21.25;50.50
34931;BME280;21134;49.646;8.560;2023-05-10T12:50:12;100102.44;;;21.06;51.67
34931;BME280;21134;49.646;8.560;2023-05-10T12:52:38;100104.72;;;21.12;52.30
34931;BME280;21134;49.646;8.560;2023-05-10T12:55:05;100099.44;;;21.13;52.24
34931;BME280;21134;49.646;8.560;2023-05-10T12:57:32;100109.75;;;21.15;52.93
34931;BME280;21134;49.646;8.560;2023-05-10T12:59:58;100103.03;;;20.76;54.28
34931;BME280;21134;49.646;8.560;2023-05-10T13:02:25;100112.53;;;20.77;54.21